sensor_id;sensor_type;location;lat;lon;timestamp;temperature;humidity
46400;DHT22;32104;50.838;4.388;2023-03-23T00:08:12;14.00;99.90
46400;DHT22;32104;50.838;4.388;2023-03-23T00:10:38;14.00;99.90
46400;DHT22;32104;50.838;4.388;2023-03-23T00:13:04;14.00;99.90
46400;DHT22;32104;50.838;4.388;2023-03-23T00:15:30;13.80;99.90
46400;DHT22;32104;50.838;4.388;2023-03-23T00:18:01;13.90;99.90
46400;DHT22;32104;50.838;4.388;2023-03-23T00:20:31;13.90;99.90
46400;DHT22;32104;50.838;4.388;2023-03-23T00:23:06;13.80;99.90
46400;DHT22;32104;50.838;4.388;2023-03-23T00:25:32;13.80;99.90
46400;DHT22;32104;50.838;4.388;2023-03-23T00:27:58;14.00;99.90
46400;DHT22;32104;50.838;4.388;2023-03-23T00:30:24;14.00;99.90
46400;DHT22;32104;50.838;4.388;2023-03-23T00:32:50;13.90;99.90
46400;DHT22;32104;50.838;4.388;2023-03-23T00:35:16;13.90;99.90
46400;DHT22;32104;50.838;4.388;2023-03-23T00:37:44;14.10;99.90
46400;DHT22;32104;50.838;4.388;2023-03-23T00:40:10;14.00;99.90
46400;DHT22;32104;50.838;4.388;2023-03-23T00:42:36;13.80;99.90
46400;DHT22;32104;50.838;4.388;2023-03-23T00:45:04;13.80;99.90
46400;DHT22;32104;50.838;4.388;2023-03-23T00:47:36;13.70;99.90
46400;DHT22;32104;50.838;4.388;2023-03-23T00:50:03;13.80;99.90
46400;DHT22;32104;50.838;4.388;2023-03-23T00:52:31;13.80;99.90
46400;DHT22;32104;50.838;4.388;2023-03-23T00:54:56;13.90;99.90
46400;DHT22;32104;50.838;4.388;2023-03-23T00:57:22;14.00;99.90
46400;DHT22;32104;50.838;4.388;2023-03-23T00:59:51;13.90;99.90
46400;DHT22;32104;50.838;4.388;2023-03-23T01:02:16;13.90;99.90
46400;DHT22;32104;50.838;4.388;2023-03-23T01:04:43;13.80;99.90
46400;DHT22;32104;50.838;4.388;2023-03-23T01:07:11;13.80;99.90
46400;DHT22;32104;50.838;4.388;2023-03-23T01:09:39;13.90;99.90
46400;DHT22;32104;50.838;4.388;2023-03-23T01:12:05;13.90;99.90
46400;DHT22;32104;50.838;4.388;2023-03-23T01:14:31;14.00;99.90
46400;DHT22;32104;50.838;4.388;2023-03-23T01:16:57;13.90;99.90
46400;DHT22;32104;50.838;4.388;2023-03-23T01:19:23;14.00;99.90
46400;DHT22;32104;50.838;4.388;2023-03-23T01:21:48;14.10;99.90
46400;DHT22;32104;50.838;4.388;2023-03-23T01:24:14;14.00;99.90
46400;DHT22;32104;50.838;4.388;2023-03-23T01:26:40;14.00;99.90
46400;DHT22;32104;50.838;4.388;2023-03-23T01:29:06;14.00;99.90
46400;DHT22;32104;50.838;4.388;2023-03-23T01:31:32;14.00;99.90
46400;DHT22;32104;50.838;4.388;2023-03-23T01:33:57;13.90;99.90
46400;DHT22;32104;50.838;4.388;2023-03-23T01:36:26;14.00;99.90
46400;DHT22;32104;50.838;4.388;2023-03-23T01:38:54;13.90;99.90
46400;DHT22;32104;50.838;4.388;2023-03-23T01:41:21;13.90;99.90
46400;DHT22;32104;50.838;4.388;2023-03-23T01:46:48;14.00;99.90
46400;DHT22;32104;50.838;4.388;2023-03-23T01:49:19;13.90;99.90
46400;DHT22;32104;50.838;4.388;2023-03-23T01:51:51;13.80;99.90
46400;DHT22;32104;50.838;4.388;2023-03-23T01:54:19;13.80;99.90
46400;DHT22;32104;50.838;4.388;2023-03-23T01:57:07;13.90;99.90
46400;DHT22;32104;50.838;4.388;2023-03-23T01:59:36;13.90;99.90
46400;DHT22;32104;50.838;4.388;2023-03-23T02:02:03;13.90;99.90
46400;DHT22;32104;50.838;4.388;2023-03-23T02:04:31;14.00;99.90
46400;DHT22;32104;50.838;4.388;2023-03-23T02:06:59;14.00;99.90
46400;DHT22;32104;50.838;4.388;2023-03-23T02:09:27;14.10;99.90
46400;DHT22;32104;50.838;4.388;2023-03-23T02:11:54;13.90;99.90
46400;DHT22;32104;50.838;4.388;2023-03-23T02:14:24;13.90;99.90
46400;DHT22;32104;50.838;4.388;2023-03-23T07:56:09;11.50;99.90
46400;DHT22;32104;50.838;4.388;2023-03-23T07:58:34;11.60;99.90
46400;DHT22;32104;50.838;4.388;2023-03-23T08:01:00;11.70;99.90
46400;DHT22;32104;50.838;4.388;2023-03-23T08:03:26;11.80;99.90
46400;DHT22;32104;50.838;4.388;2023-03-23T08:05:52;11.90;99.90
46400;DHT22;32104;50.838;4.388;2023-03-23T08:08:18;12.00;99.90
46400;DHT22;32104;50.838;4.388;2023-03-23T08:10:44;12.10;99.90
46400;DHT22;32104;50.838;4.388;2023-03-23T08:13:10;12.20;99.90
46400;DHT22;32104;50.838;4.388;2023-03-23T08:15:35;12.20;99.90
46400;DHT22;32104;50.838;4.388;2023-03-23T08:18:03;12.20;99.90
46400;DHT22;32104;50.838;4.388;2023-03-23T08:20:29;12.10;99.90
46400;DHT22;32104;50.838;4.388;2023-03-23T08:22:56;12.10;99.90
46400;DHT22;32104;50.838;4.388;2023-03-23T08:25:23;12.00;99.90
46400;DHT22;32104;50.838;4.388;2023-03-23T08:27:53;11.90;99.90
46400;DHT22;32104;50.838;4.388;2023-03-23T08:30:20;11.90;99.90
46400;DHT22;32104;50.838;4.388;2023-03-23T08:32:47;11.90;99.90
46400;DHT22;32104;50.838;4.388;2023-03-23T08:35:13;11.90;99.90
46400;DHT22;32104;50.838;4.388;2023-03-23T08:37:40;11.80;99.90
46400;DHT22;32104;50.838;4.388;2023-03-23T08:40:10;11.70;99.90
46400;DHT22;32104;50.838;4.388;2023-03-23T08:42:38;11.90;99.90
46400;DHT22;32104;50.838;4.388;2023-03-23T08:45:05;11.80;99.90
46400;DHT22;32104;50.838;4.388;2023-03-23T08:47:36;11.80;99.90
46400;DHT22;32104;50.838;4.388;2023-03-23T08:50:10;11.70;99.90
46400;DHT22;32104;50.838;4.388;2023-03-23T11:28:34;14.60;99.90
46400;DHT22;32104;50.838;4.388;2023-03-23T11:31:03;14.80;99.90
46400;DHT22;32104;50.838;4.388;2023-03-23T11:33:51;14.90;99.90
46400;DHT22;32104;50.838;4.388;2023-03-23T11:36:20;15.30;99.90
46400;DHT22;32104;50.838;4.388;2023-03-23T11:38:54;15.50;99.90
46400;DHT22;32104;50.838;4.388;2023-03-23T11:41:23;15.60;99.90
46400;DHT22;32104;50.838;4.388;2023-03-23T11:43:52;15.90;99.90
46400;DHT22;32104;50.838;4.388;2023-03-23T11:49:52;16.40;99.90
46400;DHT22;32104;50.838;4.388;2023-03-23T11:58:15;16.10;99.90
46400;DHT22;32104;50.838;4.388;2023-03-23T12:34:58;15.90;99.90
46400;DHT22;32104;50.838;4.388;2023-03-23T12:47:01;16.00;99.90
46400;DHT22;32104;50.838;4.388;2023-03-23T12:49:44;15.90;99.90
46400;DHT22;32104;50.838;4.388;2023-03-23T12:55:25;16.10;99.90
46400;DHT22;32104;50.838;4.388;2023-03-23T12:58:06;16.00;99.90
46400;DHT22;32104;50.838;4.388;2023-03-23T13:06:45;16.00;99.90
46400;DHT22;32104;50.838;4.388;2023-03-23T13:09:28;16.20;99.90
46400;DHT22;32104;50.838;4.388;2023-03-23T13:11:58;16.50;99.90
46400;DHT22;32104;50.838;4.388;2023-03-23T13:15:13;16.70;99.90
46400;DHT22;32104;50.838;4.388;2023-03-23T13:17:59;16.70;99.90
46400;DHT22;32104;50.838;4.388;2023-03-23T13:26:29;16.70;99.90
46400;DHT22;32104;50.838;4.388;2023-03-23T13:29:08;16.90;99.90
46400;DHT22;32104;50.838;4.388;2023-03-23T13:31:47;16.90;99.90
46400;DHT22;32104;50.838;4.388;2023-03-23T13:34:32;17.00;99.90
46400;DHT22;32104;50.838;4.388;2023-03-23T13:40:30;17.00;99.90
46400;DHT22;32104;50.838;4.388;2023-03-23T13:42:59;16.90;99.90
46400;DHT22;32104;50.838;4.388;2023-03-23T13:57:26;16.40;99.90
46400;DHT22;32104;50.838;4.388;2023-03-23T13:59:59;16.20;99.90
46400;DHT22;32104;50.838;4.388;2023-03-23T14:02:38;16.20;99.90
46400;DHT22;32104;50.838;4.388;2023-03-23T14:10:31;15.50;99.90
46400;DHT22;32104;50.838;4.388;2023-03-23T14:12:59;15.30;99.90
46400;DHT22;32104;50.838;4.388;2023-03-23T14:15:29;15.40;99.90
46400;DHT22;32104;50.838;4.388;2023-03-23T14:17:56;15.40;99.90
46400;DHT22;32104;50.838;4.388;2023-03-23T14:20:33;15.50;99.90
46400;DHT22;32104;50.838;4.388;2023-03-23T14:23:00;15.60;99.90
46400;DHT22;32104;50.838;4.388;2023-03-23T14:25:30;15.60;99.90
46400;DHT22;32104;50.838;4.388;2023-03-23T14:28:27;15.80;99.90
46400;DHT22;32104;50.838;4.388;2023-03-23T14:31:00;15.90;99.90
46400;DHT22;32104;50.838;4.388;2023-03-23T14:33:26;15.90;99.90
46400;DHT22;32104;50.838;4.388;2023-03-23T14:35:53;15.90;99.90
46400;DHT22;32104;50.838;4.388;2023-03-23T14:41:46;16.00;99.90
46400;DHT22;32104;50.838;4.388;2023-03-23T14:44:18;16.00;99.90
46400;DHT22;32104;50.838;4.388;2023-03-23T14:46:47;15.90;99.90
46400;DHT22;32104;50.838;4.388;2023-03-23T14:49:23;15.80;99.90
46400;DHT22;32104;50.838;4.388;2023-03-23T14:51:54;15.70;99.90
46400;DHT22;32104;50.838;4.388;2023-03-23T14:54:28;15.60;99.90
46400;DHT22;32104;50.838;4.388;2023-03-23T15:00:27;15.70;99.90
46400;DHT22;32104;50.838;4.388;2023-03-23T15:02:56;15.90;99.90
46400;DHT22;32104;50.838;4.388;2023-03-23T15:05:29;16.10;99.90
46400;DHT22;32104;50.838;4.388;2023-03-23T15:08:01;16.20;99.90
46400;DHT22;32104;50.838;4.388;2023-03-23T15:10:29;16.30;99.90
46400;DHT22;32104;50.838;4.388;2023-03-23T15:12:55;16.40;99.90
46400;DHT22;32104;50.838;4.388;2023-03-23T18:13:42;15.50;99.90
46400;DHT22;32104;50.838;4.388;2023-03-23T18:19:30;15.40;99.90
46400;DHT22;32104;50.838;4.388;2023-03-23T18:21:58;15.50;99.90
46400;DHT22;32104;50.838;4.388;2023-03-23T18:24:24;15.50;99.90
46400;DHT22;32104;50.838;4.388;2023-03-23T18:26:50;15.40;99.90
46400;DHT22;32104;50.838;4.388;2023-03-23T18:29:16;15.40;99.90
46400;DHT22;32104;50.838;4.388;2023-03-23T18:31:42;15.40;99.90
46400;DHT22;32104;50.838;4.388;2023-03-23T18:34:08;15.50;99.90
46400;DHT22;32104;50.838;4.388;2023-03-23T18:36:34;15.60;99.90
46400;DHT22;32104;50.838;4.388;2023-03-23T18:39:00;15.70;99.90
46400;DHT22;32104;50.838;4.388;2023-03-23T18:41:26;15.60;99.90
46400;DHT22;32104;50.838;4.388;2023-03-23T18:43:52;15.50;99.90
46400;DHT22;32104;50.838;4.388;2023-03-23T18:46:20;15.30;99.90
46400;DHT22;32104;50.838;4.388;2023-03-23T18:48:46;15.40;99.90
46400;DHT22;32104;50.838;4.388;2023-03-23T18:51:12;15.40;99.90
46400;DHT22;32104;50.838;4.388;2023-03-23T18:53:58;15.20;99.90
46400;DHT22;32104;50.838;4.388;2023-03-23T18:56:24;15.20;99.90
46400;DHT22;32104;50.838;4.388;2023-03-23T18:58:51;15.10;99.90
46400;DHT22;32104;50.838;4.388;2023-03-23T19:01:18;15.10;99.90
46400;DHT22;32104;50.838;4.388;2023-03-23T19:03:44;15.10;99.90
46400;DHT22;32104;50.838;4.388;2023-03-23T19:06:22;15.10;99.90
46400;DHT22;32104;50.838;4.388;2023-03-23T19:08:49;14.90;99.90
46400;DHT22;32104;50.838;4.388;2023-03-23T19:11:17;14.90;99.90
46400;DHT22;32104;50.838;4.388;2023-03-23T19:13:44;14.90;99.90
46400;DHT22;32104;50.838;4.388;2023-03-23T19:16:10;14.90;99.90
46400;DHT22;32104;50.838;4.388;2023-03-23T19:18:36;14.70;99.90
46400;DHT22;32104;50.838;4.388;2023-03-23T19:21:02;14.70;99.90
46400;DHT22;32104;50.838;4.388;2023-03-23T19:23:28;14.60;99.90
46400;DHT22;32104;50.838;4.388;2023-03-23T19:25:55;14.60;99.90
46400;DHT22;32104;50.838;4.388;2023-03-23T19:28:22;14.60;99.90
46400;DHT22;32104;50.838;4.388;2023-03-23T19:30:53;14.70;99.90
46400;DHT22;32104;50.838;4.388;2023-03-23T19:33:20;14.80;99.90
46400;DHT22;32104;50.838;4.388;2023-03-23T19:35:51;14.80;99.90
46400;DHT22;32104;50.838;4.388;2023-03-23T19:38:21;14.90;99.90
46400;DHT22;32104;50.838;4.388;2023-03-23T19:40:55;14.80;99.90
46400;DHT22;32104;50.838;4.388;2023-03-23T19:43:28;14.70;99.90
46400;DHT22;32104;50.838;4.388;2023-03-23T19:45:55;14.50;99.90
46400;DHT22;32104;50.838;4.388;2023-03-23T19:51:28;14.40;99.90
46400;DHT22;32104;50.838;4.388;2023-03-23T19:53:57;14.50;99.90
46400;DHT22;32104;50.838;4.388;2023-03-23T19:59:50;14.40;99.90
46400;DHT22;32104;50.838;4.388;2023-03-23T20:02:15;14.40;99.90
46400;DHT22;32104;50.838;4.388;2023-03-23T20:08:05;14.40;99.90
46400;DHT22;32104;50.838;4.388;2023-03-23T20:10:31;14.40;99.90
46400;DHT22;32104;50.838;4.388;2023-03-23T20:13:03;14.40;99.90
46400;DHT22;32104;50.838;4.388;2023-03-23T20:15:30;14.40;99.90
46400;DHT22;32104;50.838;4.388;2023-03-23T20:17:56;14.30;99.90
46400;DHT22;32104;50.838;4.388;2023-03-23T20:20:24;14.30;99.90
46400;DHT22;32104;50.838;4.388;2023-03-23T20:22:50;14.20;99.90
46400;DHT22;32104;50.838;4.388;2023-03-23T20:25:16;14.20;99.90
46400;DHT22;32104;50.838;4.388;2023-03-23T20:27:42;14.20;99.90
46400;DHT22;32104;50.838;4.388;2023-03-23T20:30:11;14.00;99.90
46400;DHT22;32104;50.838;4.388;2023-03-23T20:32:38;14.10;99.90
46400;DHT22;32104;50.838;4.388;2023-03-23T20:35:08;14.10;99.90
46400;DHT22;32104;50.838;4.388;2023-03-23T20:37:36;13.90;99.90
46400;DHT22;32104;50.838;4.388;2023-03-23T20:40:09;13.70;99.90
46400;DHT22;32104;50.838;4.388;2023-03-23T20:42:57;13.60;99.90
46400;DHT22;32104;50.838;4.388;2023-03-23T20:45:25;13.60;99.90
46400;DHT22;32104;50.838;4.388;2023-03-23T20:51:17;13.50;99.90
46400;DHT22;32104;50.838;4.388;2023-03-23T20:53:46;13.40;99.90
46400;DHT22;32104;50.838;4.388;2023-03-23T20:56:13;13.40;99.90
46400;DHT22;32104;50.838;4.388;2023-03-23T20:58:40;13.30;99.90
46400;DHT22;32104;50.838;4.388;2023-03-23T21:01:07;13.30;99.90
46400;DHT22;32104;50.838;4.388;2023-03-23T21:03:37;13.20;99.90
46400;DHT22;32104;50.838;4.388;2023-03-23T21:06:04;13.10;99.90
46400;DHT22;32104;50.838;4.388;2023-03-23T21:08:34;13.10;99.90
46400;DHT22;32104;50.838;4.388;2023-03-23T21:11:01;13.10;99.90
46400;DHT22;32104;50.838;4.388;2023-03-23T21:13:28;13.00;99.90
46400;DHT22;32104;50.838;4.388;2023-03-23T21:15:54;13.00;99.90
46400;DHT22;32104;50.838;4.388;2023-03-23T21:18:20;13.00;99.90
46400;DHT22;32104;50.838;4.388;2023-03-23T21:20:46;13.00;99.90
46400;DHT22;32104;50.838;4.388;2023-03-23T21:23:15;13.00;99.90
46400;DHT22;32104;50.838;4.388;2023-03-23T21:25:41;13.00;99.90
46400;DHT22;32104;50.838;4.388;2023-03-23T21:28:10;12.90;99.90
46400;DHT22;32104;50.838;4.388;2023-03-23T21:30:37;12.90;99.90
46400;DHT22;32104;50.838;4.388;2023-03-23T21:33:06;12.90;99.90
46400;DHT22;32104;50.838;4.388;2023-03-23T21:35:32;12.80;99.90
46400;DHT22;32104;50.838;4.388;2023-03-23T21:37:58;12.80;99.90
46400;DHT22;32104;50.838;4.388;2023-03-23T21:40:24;12.90;99.90
46400;DHT22;32104;50.838;4.388;2023-03-23T21:42:50;12.90;99.90
46400;DHT22;32104;50.838;4.388;2023-03-23T21:45:17;12.80;99.90
46400;DHT22;32104;50.838;4.388;2023-03-23T21:47:46;12.80;99.90
46400;DHT22;32104;50.838;4.388;2023-03-23T21:50:12;12.80;99.90
46400;DHT22;32104;50.838;4.388;2023-03-23T21:52:41;12.80;99.90
46400;DHT22;32104;50.838;4.388;2023-03-23T21:55:29;12.70;99.90
46400;DHT22;32104;50.838;4.388;2023-03-23T21:57:59;12.80;99.90
46400;DHT22;32104;50.838;4.388;2023-03-23T22:00:25;12.70;99.90
46400;DHT22;32104;50.838;4.388;2023-03-23T22:02:51;12.80;99.90
46400;DHT22;32104;50.838;4.388;2023-03-23T22:05:18;12.80;99.90
46400;DHT22;32104;50.838;4.388;2023-03-23T22:07:44;12.80;99.90
46400;DHT22;32104;50.838;4.388;2023-03-23T22:10:11;12.90;99.90
46400;DHT22;32104;50.838;4.388;2023-03-23T22:12:38;12.90;99.90
46400;DHT22;32104;50.838;4.388;2023-03-23T22:18:30;12.90;99.90
46400;DHT22;32104;50.838;4.388;2023-03-23T22:20:59;12.90;99.90
46400;DHT22;32104;50.838;4.388;2023-03-23T22:23:26;12.90;99.90
46400;DHT22;32104;50.838;4.388;2023-03-23T22:25:52;13.00;99.90
46400;DHT22;32104;50.838;4.388;2023-03-23T22:28:18;13.10;99.90
46400;DHT22;32104;50.838;4.388;2023-03-23T22:30:45;13.10;99.90
46400;DHT22;32104;50.838;4.388;2023-03-23T22:36:34;13.10;99.90
46400;DHT22;32104;50.838;4.388;2023-03-23T22:39:02;13.00;99.90
46400;DHT22;32104;50.838;4.388;2023-03-23T22:41:32;13.00;99.90
46400;DHT22;32104;50.838;4.388;2023-03-23T22:44:02;13.00;99.90
46400;DHT22;32104;50.838;4.388;2023-03-23T22:46:31;13.00;99.90
46400;DHT22;32104;50.838;4.388;2023-03-23T22:48:57;13.00;99.90
46400;DHT22;32104;50.838;4.388;2023-03-23T22:51:24;13.00;99.90
46400;DHT22;32104;50.838;4.388;2023-03-23T22:53:50;12.90;99.90
46400;DHT22;32104;50.838;4.388;2023-03-23T22:56:16;13.00;99.90
46400;DHT22;32104;50.838;4.388;2023-03-23T22:58:42;13.00;99.90
46400;DHT22;32104;50.838;4.388;2023-03-23T23:01:33;13.00;99.90
46400;DHT22;32104;50.838;4.388;2023-03-23T23:07:26;12.90;99.90
46400;DHT22;32104;50.838;4.388;2023-03-23T23:09:52;13.10;99.90
46400;DHT22;32104;50.838;4.388;2023-03-23T23:12:21;13.00;99.90
46400;DHT22;32104;50.838;4.388;2023-03-23T23:14:47;13.00;99.90
46400;DHT22;32104;50.838;4.388;2023-03-23T23:17:17;13.00;99.90
46400;DHT22;32104;50.838;4.388;2023-03-23T23:19:46;13.00;99.90
46400;DHT22;32104;50.838;4.388;2023-03-23T23:22:12;13.00;99.90
46400;DHT22;32104;50.838;4.388;2023-03-23T23:24:37;13.10;99.90
46400;DHT22;32104;50.838;4.388;2023-03-23T23:27:04;13.10;99.90
46400;DHT22;32104;50.838;4.388;2023-03-23T23:29:33;13.10;99.90
46400;DHT22;32104;50.838;4.388;2023-03-23T23:31:59;13.00;99.90
46400;DHT22;32104;50.838;4.388;2023-03-23T23:34:27;13.00;99.90
46400;DHT22;32104;50.838;4.388;2023-03-23T23:36:56;13.00;99.90
46400;DHT22;32104;50.838;4.388;2023-03-23T23:39:34;13.00;99.90
46400;DHT22;32104;50.838;4.388;2023-03-23T23:42:03;13.00;99.90
46400;DHT22;32104;50.838;4.388;2023-03-23T23:44:32;13.00;99.90
46400;DHT22;32104;50.838;4.388;2023-03-23T23:46:59;12.90;99.90
46400;DHT22;32104;50.838;4.388;2023-03-23T23:49:26;13.00;99.90
46400;DHT22;32104;50.838;4.388;2023-03-23T23:51:53;13.00;99.90
46400;DHT22;32104;50.838;4.388;2023-03-23T23:54:20;13.10;99.90
46400;DHT22;32104;50.838;4.388;2023-03-23T23:56:48;13.10;99.90
46400;DHT22;32104;50.838;4.388;2023-03-23T23:59:15;13.10;99.90
